createdAt,value
2018-01-08T00:02:35.076Z,72.59
2018-01-08T00:47:34.281Z,72.73
2018-01-08T01:02:34.285Z,72.93
2018-01-08T02:02:35.536Z,73.65
2018-01-08T02:32:34.178Z,73.04
2018-01-08T02:47:34.775Z,73.02
2018-01-08T03:02:35.412Z,73.10
2018-01-08T03:17:34.631Z,72.83
2018-01-08T03:32:35.346Z,73.50
2018-01-08T04:17:34.877Z,73.34
2018-01-08T04:32:38.737Z,73.20
2018-01-08T04:47:35.325Z,73.46
2018-01-08T05:17:36.187Z,74.84
2018-01-08T05:32:35.104Z,74.58
2018-01-08T05:47:34.482Z,74.50
2018-01-08T06:02:34.524Z,74.31
2018-01-08T06:17:35.354Z,74.20
2018-01-08T07:02:35.865Z,73.88
2018-01-08T08:02:35.085Z,70.18
2018-01-08T08:32:34.607Z,68.72
2018-01-08T08:47:34.751Z,66.95
2018-01-08T09:02:34.955Z,62.75
2018-01-08T09:17:34.129Z,60.68
2018-01-08T09:32:37.051Z,60.71
2018-01-08T09:47:34.714Z,62.18
2018-01-08T10:02:46.257Z,62.60
2018-01-08T10:17:46.170Z,62.09
2018-01-08T10:32:34.324Z,61.23
2018-01-08T10:47:40.188Z,59.78
2018-01-08T11:02:40.343Z,56.78
2018-01-08T11:17:34.392Z,56.68
2018-01-08T11:32:34.281Z,58.00
2018-01-08T11:47:34.811Z,59.03
2018-01-08T12:02:34.874Z,59.41
2018-01-08T12:17:34.090Z,60.11
2018-01-08T12:32:34.576Z,60.94
2018-01-08T12:47:33.415Z,62.00
2018-01-08T13:02:34.061Z,62.93
2018-01-08T13:17:34.798Z,64.17
2018-01-08T13:32:34.965Z,64.53
2018-01-08T13:47:34.463Z,63.89
2018-01-08T14:02:34.383Z,64.53
2018-01-08T14:17:36.213Z,65.27
2018-01-08T14:32:36.301Z,65.63
2018-01-08T14:47:34.649Z,66.56
2018-01-08T15:02:34.592Z,67.29
2018-01-08T15:17:34.478Z,68.26
2018-01-08T15:32:35.976Z,69.02
2018-01-08T15:47:34.874Z,69.60
2018-01-08T16:02:36.842Z,69.98
2018-01-08T16:17:34.763Z,70.43
2018-01-08T16:32:35.163Z,70.83
2018-01-08T16:47:35.114Z,71.78
2018-01-08T17:02:37.116Z,72.61
2018-01-08T17:17:34.953Z,72.76
2018-01-08T17:32:37.390Z,73.15
2018-01-08T17:47:35.404Z,73.26
2018-01-08T18:17:38.280Z,73.03
2018-01-08T19:02:35.136Z,73.26
2018-01-08T20:17:34.240Z,73.22
2018-01-08T21:02:40.586Z,74.40
2018-01-08T21:17:35.051Z,74.06
2018-01-08T22:17:35.198Z,74.77
2018-01-08T22:32:34.658Z,74.93
2018-01-08T22:47:35.318Z,75.38
2018-01-08T23:32:34.874Z,75.59
